Main page
METAR-TAF:

METAR-TAF

Airports :

Tulcea Airport

Tulcea, Romania

latitude: 45-11N, longitude: 028-49E, elevation: 4 m

Current weather observation

The report was made 42 minutes ago, at 06:30 UTC
Wind 9 kt from the North/Northwest
Temperature 26°C
Humidity 61%
Pressure 1012 hPa
Visibility 10 km or more
no clouds below 1500 m and no cumulonimbus

METAR: LRTC 300630Z 34009KT CAVOK 26/18 Q1012

Time: 10:12 (07:12 UTC)

Forecast

The report was made 2 hours and 12 minutes ago, at 05:00 UTC
Forecast valid from 30 at 06 UTC to 30 at 15 UTC
Wind 8 kt from the North/Northwest
Visibility 10 km or more
no clouds below 1500 m and no cumulonimbus
Probability 30% :
Temporary
from 30 at 12 UTC to 30 at 15 UTC
Scattered clouds at a height of 4000 ft, Cumulonimbus.

TAF: LRTC 300500Z 3006/3015 34008KT CAVOK PROB30 TEMPO 3012/3015 SCT040CB

Weather observations and forecasts of more than 4000 airports (METAR and TAF reports).

The available stations are represented by yellow and red dots on the map.

Hover mouse over dot to see the name of the station.

Then click to see weather observations and forecasts.

To change the map : click on the green buttons with a black cross to zoom in, on the green button with a dash to zoom out, or on the green arrows for adjacent maps.


METAR-TAF: